Time;durP1;ratioP1;P1;durP2;ratioP2;P2;SDS_P1;SDS_P2;PMS_P1;PMS_P2;Temp;Humidity;BMP_temperature;BMP_pressure;BME280_temperature;BME280_humidity;BME280_pressure;Samples;Min_cycle;Max_cycle;Signal;HPM_P1;HPM_P2
2022/07/30 00:00:36;;;;;;;;;;;14.80;99.90;;;;;;5076510;27;20017;-87
2022/07/30 00:03:02;;;;;;;;;;;14.70;99.90;;;;;;5070018;27;19919;-87
2022/07/30 00:05:30;;;;;;;;;;;14.60;99.90;;;;;;5062955;27;19919;-87
2022/07/30 00:07:57;;;;;;;;;;;14.60;99.90;;;;;;5092440;27;19970;-86
2022/07/30 00:10:23;;;;;;;;;;;14.50;99.90;;;;;;5085995;27;20371;-86
2022/07/30 00:12:49;;;;;;;;;;;14.40;99.90;;;;;;5090975;27;20362;-87
2022/07/30 00:15:16;;;;;;;;;;;14.30;99.90;;;;;;5082027;27;19923;-87
2022/07/30 00:17:42;;;;;;;;;;;14.40;99.90;;;;;;5071998;27;19919;-86
2022/07/30 00:20:08;;;;;;;;;;;14.30;99.90;;;;;;5066520;27;19927;-87
2022/07/30 00:22:34;;;;;;;;;;;14.30;99.90;;;;;;5067166;27;20511;-87
2022/07/30 00:25:00;;;;;;;;;;;14.30;99.90;;;;;;5093028;27;20010;-86
2022/07/30 00:27:26;;;;;;;;;;;14.20;99.90;;;;;;5071740;27;19997;-86
2022/07/30 00:29:52;;;;;;;;;;;14.20;99.90;;;;;;5067798;27;20301;-85
2022/07/30 00:32:18;;;;;;;;;;;14.20;99.90;;;;;;5088980;27;19918;-85
2022/07/30 00:34:45;;;;;;;;;;;14.20;99.90;;;;;;5070781;27;19926;-85
2022/07/30 00:37:11;;;;;;;;;;;14.10;99.90;;;;;;5072147;27;19918;-86
2022/07/30 00:39:37;;;;;;;;;;;14.10;99.90;;;;;;5086299;27;20025;-85
2022/07/30 00:42:03;;;;;;;;;;;13.90;99.90;;;;;;5084953;27;19923;-86
2022/07/30 00:44:30;;;;;;;;;;;13.80;99.90;;;;;;5104724;27;19922;-86
2022/07/30 00:46:56;;;;;;;;;;;13.80;99.90;;;;;;5070677;27;19919;-86
2022/07/30 00:49:22;;;;;;;;;;;13.80;99.90;;;;;;5056743;27;20716;-87
2022/07/30 00:51:48;;;;;;;;;;;13.80;99.90;;;;;;5109980;27;19961;-86
2022/07/30 00:54:15;;;;;;;;;;;13.80;99.90;;;;;;5071802;27;20379;-87
2022/07/30 00:56:41;;;;;;;;;;;13.80;99.90;;;;;;5086164;27;19923;-86
2022/07/30 00:59:08;;;;;;;;;;;13.80;99.90;;;;;;5092878;27;19925;-85
2022/07/30 01:01:34;;;;;;;;;;;13.80;99.90;;;;;;5091637;27;19919;-86
2022/07/30 01:04:00;;;;;;;;;;;13.80;99.90;;;;;;5076244;27;20086;-86
2022/07/30 01:06:27;;;;;;;;;;;13.80;99.90;;;;;;5096608;27;19918;-86
2022/07/30 01:08:53;;;;;;;;;;;13.80;99.90;;;;;;5078517;27;19968;-87
2022/07/30 01:11:20;;;;;;;;;;;13.80;99.90;;;;;;5075285;27;20643;-87
2022/07/30 01:13:46;;;;;;;;;;;13.80;99.90;;;;;;5109380;27;19919;-87
2022/07/30 01:16:12;;;;;;;;;;;13.90;99.90;;;;;;5070300;27;19978;-87
2022/07/30 01:21:29;;;;;;;;;;;13.70;99.90;;;;;;5089454;27;19923;-87
2022/07/30 01:23:57;;;;;;;;;;;13.70;99.90;;;;;;5108693;27;19919;-86
2022/07/30 01:26:23;;;;;;;;;;;13.70;99.90;;;;;;5092463;27;19950;-87
2022/07/30 01:28:52;;;;;;;;;;;13.70;99.90;;;;;;5072693;27;19972;-87
2022/07/30 01:31:18;;;;;;;;;;;13.70;99.90;;;;;;5086104;27;19923;-87
2022/07/30 01:33:49;;;;;;;;;;;13.60;99.90;;;;;;5076526;27;19918;-87
2022/07/30 01:36:26;;;;;;;;;;;13.60;99.90;;;;;;5082377;27;20318;-88
2022/07/30 01:38:52;;;;;;;;;;;13.50;99.90;;;;;;5076354;27;19918;-87
2022/07/30 01:41:18;;;;;;;;;;;13.50;99.90;;;;;;5077017;27;19948;-88
2022/07/30 01:43:45;;;;;;;;;;;13.50;99.90;;;;;;5072772;27;19919;-87
2022/07/30 01:46:13;;;;;;;;;;;13.40;99.90;;;;;;5069903;27;19998;-87
2022/07/30 01:48:41;;;;;;;;;;;13.50;99.90;;;;;;5104471;27;19919;-87
2022/07/30 01:51:11;;;;;;;;;;;13.50;99.90;;;;;;5094177;27;19918;-87
2022/07/30 01:53:40;;;;;;;;;;;13.50;99.90;;;;;;5076173;27;19923;-86
2022/07/30 01:56:10;;;;;;;;;;;13.40;99.90;;;;;;5080014;27;19958;-86
2022/07/30 01:58:38;;;;;;;;;;;13.40;99.90;;;;;;5093559;27;19918;-87
2022/07/30 02:01:24;;;;;;;;;;;13.40;99.90;;;;;;5080668;27;19923;-87
2022/07/30 02:03:57;;;;;;;;;;;13.40;99.90;;;;;;5086993;27;19919;-87
2022/07/30 02:06:26;;;;;;;;;;;13.40;99.90;;;;;;5106875;27;20023;-87
2022/07/30 02:08:58;;;;;;;;;;;13.40;99.90;;;;;;5088515;27;20030;-88
2022/07/30 02:14:21;;;;;;;;;;;13.30;99.90;;;;;;5074274;27;19925;-87
2022/07/30 02:16:49;;;;;;;;;;;13.20;99.90;;;;;;5080101;27;19919;-87
2022/07/30 02:19:17;;;;;;;;;;;13.10;99.90;;;;;;5078534;27;19919;-87
2022/07/30 02:21:44;;;;;;;;;;;13.10;99.90;;;;;;5087272;27;20021;-87
2022/07/30 02:24:21;;;;;;;;;;;13.10;99.90;;;;;;5097827;27;19926;-87
2022/07/30 02:26:49;;;;;;;;;;;13.10;99.90;;;;;;5095889;27;19919;-87
2022/07/30 02:29:18;;;;;;;;;;;13.10;99.90;;;;;;5075477;27;19923;-87
2022/07/30 02:31:47;;;;;;;;;;;13.10;99.90;;;;;;5082758;27;19919;-87
2022/07/30 02:34:15;;;;;;;;;;;13.10;99.90;;;;;;5078944;27;19919;-88
2022/07/30 02:36:42;;;;;;;;;;;13.10;99.90;;;;;;5087157;27;19915;-87
2022/07/30 02:39:08;;;;;;;;;;;13.10;99.90;;;;;;5114976;27;19915;-87
2022/07/30 02:41:37;;;;;;;;;;;13.10;99.90;;;;;;5104297;27;19966;-86
2022/07/30 02:44:04;;;;;;;;;;;13.00;99.90;;;;;;5089126;27;19915;-87
2022/07/30 02:46:31;;;;;;;;;;;13.00;99.90;;;;;;5081418;27;19930;-87
2022/07/30 02:49:17;;;;;;;;;;;12.90;99.90;;;;;;5111962;27;19919;-87
2022/07/30 02:51:46;;;;;;;;;;;12.90;99.90;;;;;;5116938;27;19933;-88
2022/07/30 02:54:13;;;;;;;;;;;12.70;99.90;;;;;;5102275;27;19903;-87
2022/07/30 02:56:40;;;;;;;;;;;12.70;99.90;;;;;;5098212;27;19967;-87
2022/07/30 02:59:07;;;;;;;;;;;12.60;99.90;;;;;;5075403;27;20418;-87
2022/07/30 03:01:34;;;;;;;;;;;12.60;99.90;;;;;;5095976;28;20382;-87
2022/07/30 03:04:01;;;;;;;;;;;12.60;99.90;;;;;;5085547;27;19919;-87
2022/07/30 03:06:28;;;;;;;;;;;12.40;99.90;;;;;;5096425;27;20005;-87
2022/07/30 03:08:57;;;;;;;;;;;12.30;99.90;;;;;;5095463;27;19918;-88
2022/07/30 03:11:24;;;;;;;;;;;12.30;99.90;;;;;;5097249;27;19923;-88
2022/07/30 03:13:50;;;;;;;;;;;12.10;99.90;;;;;;5084001;28;19915;-87
2022/07/30 03:16:16;;;;;;;;;;;12.20;99.90;;;;;;5083411;27;20378;-87
2022/07/30 03:18:43;;;;;;;;;;;12.20;99.90;;;;;;5095678;28;20362;-87
2022/07/30 03:21:12;;;;;;;;;;;12.10;99.90;;;;;;5090658;28;19928;-88
2022/07/30 03:23:39;;;;;;;;;;;12.10;99.90;;;;;;5095937;28;19981;-86
2022/07/30 03:26:07;;;;;;;;;;;12.10;99.90;;;;;;5073775;28;19923;-86
2022/07/30 03:28:35;;;;;;;;;;;12.20;99.90;;;;;;5072004;27;19926;-87
2022/07/30 03:31:02;;;;;;;;;;;12.20;99.90;;;;;;5088365;28;20318;-87
2022/07/30 03:33:30;;;;;;;;;;;12.20;99.90;;;;;;5078955;27;19919;-87
2022/07/30 03:35:57;;;;;;;;;;;12.10;99.90;;;;;;5087946;27;20404;-86
2022/07/30 03:38:23;;;;;;;;;;;12.10;99.90;;;;;;5073680;27;19927;-86
2022/07/30 03:40:50;;;;;;;;;;;12.10;99.90;;;;;;5055944;28;19919;-86
2022/07/30 03:43:17;;;;;;;;;;;12.10;99.90;;;;;;5066995;27;19962;-87
2022/07/30 03:45:45;;;;;;;;;;;12.10;99.90;;;;;;5074442;27;20374;-87
2022/07/30 03:48:12;;;;;;;;;;;12.20;99.90;;;;;;5097409;27;19919;-87
2022/07/30 03:50:42;;;;;;;;;;;12.20;99.90;;;;;;5076240;27;19944;-87
2022/07/30 03:53:10;;;;;;;;;;;12.30;99.90;;;;;;5080411;27;20372;-87
2022/07/30 03:55:56;;;;;;;;;;;12.30;99.90;;;;;;5107435;27;20025;-86
2022/07/30 03:58:52;;;;;;;;;;;12.30;99.90;;;;;;5077379;28;19919;-86
2022/07/30 04:01:25;;;;;;;;;;;12.30;99.90;;;;;;5072701;27;19989;-86
2022/07/30 04:03:54;;;;;;;;;;;12.30;99.90;;;;;;5091459;27;19915;-87
2022/07/30 04:06:21;;;;;;;;;;;12.30;99.90;;;;;;5070525;27;19926;-87
2022/07/30 04:08:47;;;;;;;;;;;12.40;99.90;;;;;;5054804;27;19924;-87
2022/07/30 04:11:13;;;;;;;;;;;12.30;99.90;;;;;;5069646;28;19920;-87
2022/07/30 04:13:45;;;;;;;;;;;12.40;99.90;;;;;;5071876;27;19971;-87
2022/07/30 04:16:22;;;;;;;;;;;12.40;99.90;;;;;;5076810;27;20394;-87
2022/07/30 04:18:50;;;;;;;;;;;12.50;99.90;;;;;;5103282;28;19923;-86
2022/07/30 04:21:17;;;;;;;;;;;12.50;99.90;;;;;;5075317;27;19923;-86
2022/07/30 04:23:46;;;;;;;;;;;12.50;99.90;;;;;;5073605;27;20028;-87
2022/07/30 04:26:12;;;;;;;;;;;12.60;99.90;;;;;;5070823;28;19953;-86
2022/07/30 04:28:38;;;;;;;;;;;12.60;99.90;;;;;;5082739;27;20154;-87
2022/07/30 04:31:04;;;;;;;;;;;12.60;99.90;;;;;;5069820;27;20458;-86
2022/07/30 04:33:31;;;;;;;;;;;12.60;99.90;;;;;;5071724;27;20048;-85
2022/07/30 04:36:07;;;;;;;;;;;12.70;99.90;;;;;;5068273;28;19919;-87
2022/07/30 04:38:35;;;;;;;;;;;12.70;99.90;;;;;;5068738;27;20371;-86
2022/07/30 04:41:01;;;;;;;;;;;12.70;99.90;;;;;;5066503;27;19915;-86
2022/07/30 04:43:31;;;;;;;;;;;12.80;99.90;;;;;;5087023;27;19975;-85
2022/07/30 04:45:57;;;;;;;;;;;12.90;99.90;;;;;;5067305;27;19919;-87
2022/07/30 04:48:27;;;;;;;;;;;12.90;99.90;;;;;;5060794;28;20420;-87
2022/07/30 04:50:59;;;;;;;;;;;13.10;99.90;;;;;;5067468;27;19971;-86
2022/07/30 04:53:26;;;;;;;;;;;13.10;99.90;;;;;;5080274;27;19966;-87
2022/07/30 04:55:56;;;;;;;;;;;13.20;99.90;;;;;;5082522;27;20442;-86
2022/07/30 04:58:27;;;;;;;;;;;13.20;99.90;;;;;;5083096;27;19933;-86
2022/07/30 05:00:53;;;;;;;;;;;13.20;99.90;;;;;;5071088;27;19919;-87
2022/07/30 05:03:25;;;;;;;;;;;13.20;99.90;;;;;;5070937;27;19927;-87
2022/07/30 05:05:52;;;;;;;;;;;13.30;99.90;;;;;;5109502;27;19927;-86
2022/07/30 05:08:19;;;;;;;;;;;13.30;99.90;;;;;;5071819;27;20020;-85
2022/07/30 05:10:45;;;;;;;;;;;13.40;99.90;;;;;;5082079;27;19951;-86
2022/07/30 05:13:13;;;;;;;;;;;13.50;99.90;;;;;;5070864;27;19970;-86
2022/07/30 05:15:45;;;;;;;;;;;13.60;99.90;;;;;;5071019;27;19924;-86
2022/07/30 05:18:13;;;;;;;;;;;13.80;99.90;;;;;;5066187;27;20548;-86
2022/07/30 05:20:42;;;;;;;;;;;13.90;99.90;;;;;;5088356;27;19930;-86
2022/07/30 05:23:14;;;;;;;;;;;14.00;99.90;;;;;;5070850;27;20006;-86
2022/07/30 05:25:45;;;;;;;;;;;14.00;99.90;;;;;;5083174;27;20030;-86
2022/07/30 05:28:25;;;;;;;;;;;14.20;99.90;;;;;;5074636;27;19968;-86
2022/07/30 05:30:52;;;;;;;;;;;14.40;99.90;;;;;;5066573;27;19926;-86
2022/07/30 05:33:19;;;;;;;;;;;14.50;99.90;;;;;;5080019;27;19930;-86
2022/07/30 05:35:46;;;;;;;;;;;14.60;99.90;;;;;;5066918;27;20059;-85
2022/07/30 05:38:12;;;;;;;;;;;14.60;99.90;;;;;;5081918;28;20462;-86
2022/07/30 05:40:54;;;;;;;;;;;14.70;99.90;;;;;;5073785;27;20010;-86
2022/07/30 05:43:39;;;;;;;;;;;14.80;99.90;;;;;;5094699;27;20295;-86
2022/07/30 05:46:05;;;;;;;;;;;15.00;99.90;;;;;;5065830;27;20034;-86
2022/07/30 05:48:34;;;;;;;;;;;15.00;99.90;;;;;;5079995;27;20037;-86
2022/07/30 05:51:03;;;;;;;;;;;15.20;99.90;;;;;;5103407;27;19977;-85
2022/07/30 05:53:29;;;;;;;;;;;15.30;99.90;;;;;;5069523;27;20408;-86
2022/07/30 05:56:01;;;;;;;;;;;15.40;99.90;;;;;;5084927;28;19973;-86
2022/07/30 05:59:06;;;;;;;;;;;15.60;99.90;;;;;;5062577;27;19919;-87
2022/07/30 06:02:02;;;;;;;;;;;15.70;99.90;;;;;;5091957;27;19926;-85
2022/07/30 06:04:37;;;;;;;;;;;15.70;99.90;;;;;;5070020;27;19923;-86
2022/07/30 06:07:04;;;;;;;;;;;15.80;99.90;;;;;;5084767;27;20245;-86
2022/07/30 06:09:32;;;;;;;;;;;15.90;99.90;;;;;;5070283;27;19926;-87
2022/07/30 06:12:01;;;;;;;;;;;16.20;99.90;;;;;;5101401;27;19927;-87
2022/07/30 06:14:28;;;;;;;;;;;16.30;99.90;;;;;;5082375;27;19927;-86
2022/07/30 06:16:54;;;;;;;;;;;16.40;99.90;;;;;;5057126;28;20005;-85
2022/07/30 06:19:22;;;;;;;;;;;16.50;99.90;;;;;;5123531;27;19930;-86
2022/07/30 06:21:48;;;;;;;;;;;16.60;99.90;;;;;;5104958;27;19915;-86
2022/07/30 06:24:15;;;;;;;;;;;16.90;99.90;;;;;;5115471;27;19919;-91
2022/07/30 06:27:00;;;;;;;;;;;16.80;99.90;;;;;;5058574;27;20251;-88
2022/07/30 06:29:29;;;;;;;;;;;16.90;99.90;;;;;;5082946;27;19918;-87
2022/07/30 06:31:55;;;;;;;;;;;17.00;99.90;;;;;;5102662;27;20479;-87
2022/07/30 06:34:22;;;;;;;;;;;17.10;99.90;;;;;;5095215;27;19916;-88
2022/07/30 06:36:48;;;;;;;;;;;17.10;99.90;;;;;;5077263;27;19970;-89
2022/07/30 06:39:18;;;;;;;;;;;17.30;99.90;;;;;;5090465;27;19923;-93
2022/07/30 06:42:10;;;;;;;;;;;17.30;99.90;;;;;;5099204;27;19935;-93
2022/07/30 06:45:15;;;;;;;;;;;17.40;99.90;;;;;;5054325;27;20263;-87
2022/07/30 06:48:04;;;;;;;;;;;17.40;99.90;;;;;;5076553;27;19923;-89
2022/07/30 06:50:31;;;;;;;;;;;17.60;99.90;;;;;;5089072;27;19919;-90
2022/07/30 06:52:57;;;;;;;;;;;17.70;99.90;;;;;;5072098;27;20214;-89
2022/07/30 06:55:29;;;;;;;;;;;17.80;99.90;;;;;;5056348;27;19923;-87
2022/07/30 06:57:59;;;;;;;;;;;18.00;99.90;;;;;;5088412;27;19919;-87
2022/07/30 07:00:44;;;;;;;;;;;18.10;99.90;;;;;;5067230;27;19922;-87
2022/07/30 07:03:12;;;;;;;;;;;18.20;99.90;;;;;;5067597;27;20405;-88
2022/07/30 07:05:38;;;;;;;;;;;18.30;99.90;;;;;;5049054;27;19919;-87
2022/07/30 07:08:04;;;;;;;;;;;18.40;99.90;;;;;;5099855;28;19919;-88
2022/07/30 07:10:35;;;;;;;;;;;18.60;99.90;;;;;;5087854;27;19918;-88
2022/07/30 07:13:10;;;;;;;;;;;18.70;99.90;;;;;;5084176;27;19925;-88
2022/07/30 07:15:36;;;;;;;;;;;18.80;99.90;;;;;;5087075;27;19950;-88
2022/07/30 07:18:03;;;;;;;;;;;18.80;99.90;;;;;;5084948;27;19976;-87
2022/07/30 07:20:35;;;;;;;;;;;19.00;99.90;;;;;;5083263;27;19990;-87
2022/07/30 07:23:04;;;;;;;;;;;19.00;99.90;;;;;;5049580;27;19925;-89
2022/07/30 07:25:31;;;;;;;;;;;19.00;99.90;;;;;;5082163;27;19989;-83
2022/07/30 07:27:57;;;;;;;;;;;19.00;99.90;;;;;;5085433;27;19925;-82
2022/07/30 07:30:23;;;;;;;;;;;19.10;99.90;;;;;;5078919;27;20402;-86
2022/07/30 07:32:49;;;;;;;;;;;19.40;99.90;;;;;;5083222;27;19923;-91
2022/07/30 07:35:15;;;;;;;;;;;19.70;99.90;;;;;;5075492;27;20008;-88
2022/07/30 07:37:46;;;;;;;;;;;19.80;99.90;;;;;;5086619;27;20426;-87
2022/07/30 07:40:22;;;;;;;;;;;19.90;99.90;;;;;;5073539;27;19926;-86
2022/07/30 07:42:49;;;;;;;;;;;19.80;99.90;;;;;;5090045;27;19941;-87
2022/07/30 07:45:18;;;;;;;;;;;19.90;99.90;;;;;;5075013;27;20001;-86
2022/07/30 07:47:50;;;;;;;;;;;19.90;99.90;;;;;;5075411;27;19923;-86
2022/07/30 07:50:30;;;;;;;;;;;20.00;99.90;;;;;;5070384;27;19919;-89
2022/07/30 07:52:56;;;;;;;;;;;20.10;99.90;;;;;;5079428;28;19919;-87
2022/07/30 07:55:23;;;;;;;;;;;20.00;99.90;;;;;;5049972;27;19926;-86
2022/07/30 07:57:49;;;;;;;;;;;19.90;99.90;;;;;;5050180;27;19930;-86
2022/07/30 08:00:18;;;;;;;;;;;19.90;99.90;;;;;;5103957;27;20039;-87
2022/07/30 08:02:48;;;;;;;;;;;19.90;99.90;;;;;;5087968;27;19919;-86
2022/07/30 08:05:15;;;;;;;;;;;20.10;99.90;;;;;;5072404;27;19930;-86
2022/07/30 08:07:57;;;;;;;;;;;20.30;99.90;;;;;;5074624;27;19919;-86
2022/07/30 08:11:02;;;;;;;;;;;20.30;99.90;;;;;;5079993;27;20033;-86
2022/07/30 08:13:48;;;;;;;;;;;20.40;99.90;;;;;;5079445;27;20129;-89
2022/07/30 08:16:32;;;;;;;;;;;20.80;99.90;;;;;;5092296;27;19966;-87
2022/07/30 08:19:08;;;;;;;;;;;21.00;99.90;;;;;;5093612;27;20569;-84
2022/07/30 08:21:38;;;;;;;;;;;21.30;99.90;;;;;;5092709;27;20430;-84
2022/07/30 08:24:04;;;;;;;;;;;21.90;99.90;;;;;;5073806;27;19919;-77
2022/07/30 08:26:31;;;;;;;;;;;21.90;99.90;;;;;;5092874;27;20006;-77
2022/07/30 08:28:57;;;;;;;;;;;22.30;99.90;;;;;;5071124;27;19942;-79
2022/07/30 08:31:23;;;;;;;;;;;23.00;99.90;;;;;;5091161;27;20477;-80
2022/07/30 08:33:49;;;;;;;;;;;23.30;99.90;;;;;;5077462;27;19923;-85
2022/07/30 08:36:15;;;;;;;;;;;23.80;99.90;;;;;;5075718;27;19925;-87
2022/07/30 08:38:41;;;;;;;;;;;24.10;99.90;;;;;;5094512;27;19918;-84
2022/07/30 08:41:08;;;;;;;;;;;24.00;99.90;;;;;;5070154;27;19951;-84
2022/07/30 08:43:35;;;;;;;;;;;24.10;99.90;;;;;;5075325;27;20425;-84
2022/07/30 08:46:03;;;;;;;;;;;24.60;99.90;;;;;;5072427;27;19964;-83
2022/07/30 08:48:47;;;;;;;;;;;24.80;99.90;;;;;;5088345;27;19919;-81
2022/07/30 08:51:18;;;;;;;;;;;24.60;99.90;;;;;;5076202;27;20556;-82
2022/07/30 08:53:47;;;;;;;;;;;24.00;99.90;;;;;;5091212;27;19922;-84
2022/07/30 08:56:14;;;;;;;;;;;24.10;99.90;;;;;;5070255;27;19923;-85
2022/07/30 08:58:40;;;;;;;;;;;24.80;99.90;;;;;;5065158;27;20464;-85
2022/07/30 09:01:07;;;;;;;;;;;25.10;99.90;;;;;;5075943;27;19919;-85
2022/07/30 09:03:33;;;;;;;;;;;25.50;99.90;;;;;;5089511;27;19919;-81
2022/07/30 09:06:01;;;;;;;;;;;25.20;99.90;;;;;;5095906;27;20017;-87
2022/07/30 09:08:28;;;;;;;;;;;25.10;99.90;;;;;;5082999;27;19979;-85
2022/07/30 09:10:54;;;;;;;;;;;25.50;99.90;;;;;;5067830;27;19923;-86
2022/07/30 09:13:33;;;;;;;;;;;25.60;99.90;;;;;;5082939;27;20668;-85
2022/07/30 09:16:01;;;;;;;;;;;26.10;99.90;;;;;;5069441;27;19926;-86
2022/07/30 09:18:30;;;;;;;;;;;26.50;99.90;;;;;;5074372;27;19923;-83
2022/07/30 09:21:01;;;;;;;;;;;26.60;99.90;;;;;;5083397;28;20408;-83
2022/07/30 09:23:30;;;;;;;;;;;26.80;99.90;;;;;;5066837;28;19980;-88
2022/07/30 09:26:29;;;;;;;;;;;26.50;99.90;;;;;;5060022;28;20052;-85
2022/07/30 09:29:15;;;;;;;;;;;26.60;99.90;;;;;;5063026;28;19920;-84
2022/07/30 09:32:14;;;;;;;;;;;26.80;99.90;;;;;;5057588;28;19923;-82
2022/07/30 09:35:19;;;;;;;;;;;26.90;99.90;;;;;;5069002;28;20409;-86
2022/07/30 09:38:05;;;;;;;;;;;26.80;99.90;;;;;;5065289;28;19919;-88
2022/07/30 09:40:50;;;;;;;;;;;26.80;99.90;;;;;;5085906;28;19965;-90
2022/07/30 09:43:46;;;;;;;;;;;27.30;99.90;;;;;;5066169;28;19924;-88
2022/07/30 09:46:19;;;;;;;;;;;27.60;98.50;;;;;;5068746;28;19980;-90
2022/07/30 09:48:46;;;;;;;;;;;27.90;97.70;;;;;;5052395;28;19920;-90
2022/07/30 09:51:12;;;;;;;;;;;28.10;95.30;;;;;;5069802;28;19959;-89
2022/07/30 09:53:52;;;;;;;;;;;28.00;98.10;;;;;;5052030;28;19928;-90
2022/07/30 09:56:23;;;;;;;;;;;27.90;94.80;;;;;;5075116;28;20023;-88
2022/07/30 09:58:49;;;;;;;;;;;27.80;96.60;;;;;;5069493;28;19941;-89
2022/07/30 10:01:16;;;;;;;;;;;28.00;95.10;;;;;;5074898;28;20594;-86
2022/07/30 10:04:04;;;;;;;;;;;28.10;92.00;;;;;;5087999;28;19930;-89
2022/07/30 10:07:00;;;;;;;;;;;28.30;90.60;;;;;;5055976;28;19927;-88
2022/07/30 10:09:44;;;;;;;;;;;28.30;74.90;;;;;;5069521;28;20374;-89
2022/07/30 10:12:12;;;;;;;;;;;28.50;87.80;;;;;;5070326;28;19924;-89
2022/07/30 10:14:42;;;;;;;;;;;28.60;93.10;;;;;;5040772;23;19925;-86
2022/07/30 10:17:09;;;;;;;;;;;28.70;87.40;;;;;;4986296;28;19925;-86
2022/07/30 10:19:35;;;;;;;;;;;28.40;88.20;;;;;;5001333;28;19924;-85
2022/07/30 10:22:21;;;;;;;;;;;28.80;88.50;;;;;;5006772;28;19924;-85
2022/07/30 10:25:16;;;;;;;;;;;29.10;79.00;;;;;;5019935;28;19947;-84
2022/07/30 10:28:11;;;;;;;;;;;29.40;74.20;;;;;;4968110;28;19957;-83
2022/07/30 10:30:38;;;;;;;;;;;29.70;79.80;;;;;;5004346;28;19925;-83
2022/07/30 10:33:06;;;;;;;;;;;29.60;74.70;;;;;;4970206;28;20443;-83
2022/07/30 10:35:32;;;;;;;;;;;29.80;67.10;;;;;;4984561;28;19925;-84
2022/07/30 10:37:58;;;;;;;;;;;29.70;67.00;;;;;;4970273;28;19928;-84
2022/07/30 10:40:36;;;;;;;;;;;30.00;65.80;;;;;;4969708;28;20546;-84
2022/07/30 10:43:08;;;;;;;;;;;30.40;64.40;;;;;;5019742;28;19925;-83
2022/07/30 10:45:48;;;;;;;;;;;29.60;61.50;;;;;;5017923;28;19968;-83
2022/07/30 10:48:16;;;;;;;;;;;28.80;73.10;;;;;;5018179;28;19945;-82
2022/07/30 10:50:50;;;;;;;;;;;28.40;72.60;;;;;;5004188;28;20008;-87
2022/07/30 10:53:36;;;;;;;;;;;28.10;79.50;;;;;;5003168;28;20289;-80
2022/07/30 10:56:18;;;;;;;;;;;28.80;78.20;;;;;;5019509;28;19921;-83
2022/07/30 10:59:00;;;;;;;;;;;28.30;80.60;;;;;;5029310;28;19924;-84
2022/07/30 11:01:46;;;;;;;;;;;27.80;76.80;;;;;;4986603;28;19952;-85
2022/07/30 11:04:19;;;;;;;;;;;27.70;86.00;;;;;;5037373;28;19924;-85
2022/07/30 11:06:45;;;;;;;;;;;28.10;84.30;;;;;;4992998;28;19928;-84
2022/07/30 11:09:30;;;;;;;;;;;27.90;79.00;;;;;;5010232;28;20327;-85
2022/07/30 11:11:56;;;;;;;;;;;28.20;85.50;;;;;;5039542;28;20547;-85
2022/07/30 11:14:42;;;;;;;;;;;27.60;87.50;;;;;;5007368;28;19946;-86
2022/07/30 11:17:08;;;;;;;;;;;28.00;85.80;;;;;;5011106;28;19925;-85
2022/07/30 11:19:34;;;;;;;;;;;28.90;83.30;;;;;;5043089;28;19921;-85
2022/07/30 11:22:37;;;;;;;;;;;29.00;70.80;;;;;;5019385;28;20216;-85
2022/07/30 11:25:04;;;;;;;;;;;29.50;66.30;;;;;;5033621;28;19925;-85
2022/07/30 11:27:39;;;;;;;;;;;30.10;62.90;;;;;;5021498;28;19923;-86
2022/07/30 11:30:26;;;;;;;;;;;30.30;57.10;;;;;;5024222;28;19929;-85
2022/07/30 11:32:55;;;;;;;;;;;30.40;56.50;;;;;;5008304;28;20013;-85
2022/07/30 11:35:25;;;;;;;;;;;30.90;54.50;;;;;;4974491;28;20011;-85
2022/07/30 11:37:57;;;;;;;;;;;31.00;53.70;;;;;;5018006;28;19921;-85
2022/07/30 11:40:24;;;;;;;;;;;31.50;54.70;;;;;;5003694;28;20383;-85
2022/07/30 11:42:51;;;;;;;;;;;31.60;52.30;;;;;;4986342;28;19921;-86
2022/07/30 11:46:07;;;;;;;;;;;31.40;51.90;;;;;;5018942;28;19925;-84
2022/07/30 11:49:07;;;;;;;;;;;30.60;52.10;;;;;;5009568;28;19928;-85
2022/07/30 11:51:40;;;;;;;;;;;29.30;54.10;;;;;;5034161;28;20384;-85
2022/07/30 11:54:09;;;;;;;;;;;29.80;54.30;;;;;;5005324;28;20769;-85
2022/07/30 11:56:35;;;;;;;;;;;30.20;55.90;;;;;;4988859;28;20449;-85
2022/07/30 11:59:06;;;;;;;;;;;30.00;54.70;;;;;;4990030;28;19921;-84
2022/07/30 12:01:33;;;;;;;;;;;29.60;54.40;;;;;;5033654;28;20030;-85
2022/07/30 12:04:03;;;;;;;;;;;29.70;56.80;;;;;;5017151;28;20351;-85
2022/07/30 12:06:30;;;;;;;;;;;30.00;56.30;;;;;;5021164;28;19924;-85
2022/07/30 12:08:57;;;;;;;;;;;29.30;57.10;;;;;;5000539;28;20336;-85
2022/07/30 12:11:23;;;;;;;;;;;29.70;56.00;;;;;;4974763;28;19921;-84
2022/07/30 12:13:58;;;;;;;;;;;29.60;57.10;;;;;;5018321;28;19927;-85
2022/07/30 12:16:25;;;;;;;;;;;29.40;56.60;;;;;;4986408;28;20483;-85
2022/07/30 12:18:51;;;;;;;;;;;29.40;55.20;;;;;;4973212;28;19924;-81
2022/07/30 12:21:19;;;;;;;;;;;29.80;56.20;;;;;;5008959;28;19966;-87
2022/07/30 12:24:15;;;;;;;;;;;29.90;55.10;;;;;;5022079;28;19929;-87
2022/07/30 12:26:49;;;;;;;;;;;30.00;53.20;;;;;;4998380;28;19928;-87
2022/07/30 12:29:15;;;;;;;;;;;30.20;52.50;;;;;;5022886;28;20360;-87
2022/07/30 12:31:41;;;;;;;;;;;30.40;53.80;;;;;;5009503;28;19931;-88
2022/07/30 12:34:23;;;;;;;;;;;30.70;50.70;;;;;;4991787;28;20690;-87
2022/07/30 12:36:50;;;;;;;;;;;30.60;50.00;;;;;;5002933;28;20296;-88
2022/07/30 12:39:20;;;;;;;;;;;30.30;49.40;;;;;;5005595;28;20388;-82
2022/07/30 12:41:48;;;;;;;;;;;30.20;48.80;;;;;;4992277;28;19925;-86
2022/07/30 12:44:50;;;;;;;;;;;29.90;47.90;;;;;;4980109;28;19929;-87
2022/07/30 12:47:20;;;;;;;;;;;30.00;48.10;;;;;;4971310;28;20285;-78
2022/07/30 12:49:46;;;;;;;;;;;30.30;49.20;;;;;;5015430;28;19921;-83
2022/07/30 12:52:22;;;;;;;;;;;30.60;49.30;;;;;;5010110;28;19925;-83
2022/07/30 12:55:14;;;;;;;;;;;30.40;48.10;;;;;;5026630;28;19922;-83
2022/07/30 12:57:54;;;;;;;;;;;30.60;47.80;;;;;;5004130;28;19920;-84
2022/07/30 13:00:21;;;;;;;;;;;30.30;46.00;;;;;;5006270;28;19921;-83
2022/07/30 13:02:47;;;;;;;;;;;30.70;45.30;;;;;;5003718;28;19963;-83
2022/07/30 13:05:13;;;;;;;;;;;30.70;44.20;;;;;;5005273;28;20028;-84
2022/07/30 13:08:11;;;;;;;;;;;30.60;43.10;;;;;;5003332;28;20440;-83
2022/07/30 13:10:38;;;;;;;;;;;30.60;44.00;;;;;;4980476;28;19931;-84
2022/07/30 13:13:03;;;;;;;;;;;31.20;45.50;;;;;;5022020;28;19920;-84
2022/07/30 13:15:30;;;;;;;;;;;31.40;42.10;;;;;;4986817;28;19917;-83
2022/07/30 13:17:56;;;;;;;;;;;30.80;40.60;;;;;;5003202;28;19925;-83
2022/07/30 13:20:21;;;;;;;;;;;30.30;41.50;;;;;;5003880;28;19921;-83
2022/07/30 13:22:47;;;;;;;;;;;30.80;43.20;;;;;;5021780;28;19925;-83
2022/07/30 13:25:13;;;;;;;;;;;30.70;43.70;;;;;;5022347;28;19955;-83
2022/07/30 13:27:39;;;;;;;;;;;30.30;44.30;;;;;;5004006;28;20413;-83
2022/07/30 13:30:06;;;;;;;;;;;29.80;44.20;;;;;;5003920;28;19920;-83
2022/07/30 13:32:32;;;;;;;;;;;29.70;44.60;;;;;;5021058;28;20378;-82
2022/07/30 13:34:58;;;;;;;;;;;29.40;45.10;;;;;;5020166;28;19929;-84
2022/07/30 13:37:24;;;;;;;;;;;29.40;46.60;;;;;;5018695;28;20567;-83
2022/07/30 13:39:50;;;;;;;;;;;29.30;46.40;;;;;;4988312;28;19927;-83
2022/07/30 13:42:15;;;;;;;;;;;29.40;47.20;;;;;;5006154;28;19925;-83
2022/07/30 13:44:41;;;;;;;;;;;29.40;47.20;;;;;;4988900;28;19929;-83
2022/07/30 13:47:07;;;;;;;;;;;29.50;46.10;;;;;;4985761;28;20036;-84
2022/07/30 13:49:42;;;;;;;;;;;29.30;45.40;;;;;;5017923;28;19972;-84
2022/07/30 13:52:10;;;;;;;;;;;29.20;45.90;;;;;;5019048;28;19999;-83
2022/07/30 13:54:37;;;;;;;;;;;28.90;46.40;;;;;;4987114;28;19928;-83
2022/07/30 13:57:03;;;;;;;;;;;28.90;46.60;;;;;;5021319;28;19925;-84
2022/07/30 13:59:28;;;;;;;;;;;28.80;47.00;;;;;;4996267;28;19921;-84
2022/07/30 14:01:59;;;;;;;;;;;29.20;47.50;;;;;;4985776;28;20365;-83
2022/07/30 14:04:42;;;;;;;;;;;29.10;46.50;;;;;;5015381;28;20635;-84
2022/07/30 14:07:09;;;;;;;;;;;28.40;47.00;;;;;;5032399;28;20300;-84
2022/07/30 14:09:35;;;;;;;;;;;28.20;47.30;;;;;;5005385;28;19921;-84
2022/07/30 14:12:01;;;;;;;;;;;28.00;48.20;;;;;;5006604;28;19925;-84
2022/07/30 14:14:27;;;;;;;;;;;28.30;47.80;;;;;;4971337;28;20014;-84
2022/07/30 14:16:53;;;;;;;;;;;28.40;47.70;;;;;;5016655;28;19982;-85
2022/07/30 14:19:18;;;;;;;;;;;28.00;48.80;;;;;;4987803;28;19921;-84
2022/07/30 14:21:45;;;;;;;;;;;28.00;50.50;;;;;;5021361;28;19928;-85
2022/07/30 14:24:11;;;;;;;;;;;28.20;51.40;;;;;;4988023;28;19982;-84
2022/07/30 14:26:37;;;;;;;;;;;28.40;50.30;;;;;;5000059;28;20399;-84
2022/07/30 14:29:04;;;;;;;;;;;28.40;50.10;;;;;;5035945;28;19921;-84
2022/07/30 14:31:30;;;;;;;;;;;28.20;50.20;;;;;;4988468;28;19990;-84
2022/07/30 14:33:56;;;;;;;;;;;28.30;51.00;;;;;;5019244;28;19925;-81
2022/07/30 14:36:22;;;;;;;;;;;28.80;51.70;;;;;;4987977;28;19922;-88
2022/07/30 14:38:48;;;;;;;;;;;28.70;50.20;;;;;;4985352;28;19967;-87
2022/07/30 14:42:46;;;;;;;5.43;1.85;;;28.90;48.80;;;;;;5129993;27;1317393;-81
2022/07/30 14:45:13;;;;;;;3.80;1.52;;;29.50;49.40;;;;;;5104263;27;20035;-82